Time;durP1;ratioP1;P1;durP2;ratioP2;P2;SDS_P1;SDS_P2;PMS_P1;PMS_P2;Temp;Humidity;BMP_temperature;BMP_pressure;BME280_temperature;BME280_humidity;BME280_pressure;Samples;Min_cycle;Max_cycle;Signal;HPM_P1;HPM_P2
2021/08/06 00:00:04;;;;;;;18.15;5.97;;;;;;;29.24;33.73;98751.25;5088581;28;20047;-23
2021/08/06 00:02:31;;;;;;;14.60;5.78;;;;;;;29.23;33.41;98740.63;5088918;28;20074;-23
2021/08/06 00:04:57;;;;;;;17.13;6.25;;;;;;;29.21;33.70;98752.00;5070809;28;20179;-23
2021/08/06 00:07:23;;;;;;;17.17;6.25;;;;;;;29.10;33.12;98759.31;5088852;28;20024;-23
2021/08/06 00:09:48;;;;;;;11.52;5.43;;;;;;;29.23;33.54;98762.59;5088819;28;20108;-23
2021/08/06 00:12:14;;;;;;;16.42;5.75;;;;;;;29.20;32.89;98741.41;5088613;28;20032;-23
2021/08/06 00:14:39;;;;;;;18.13;6.03;;;;;;;29.44;32.26;98751.03;5088626;28;20031;-23
2021/08/06 00:17:05;;;;;;;15.48;5.40;;;;;;;29.30;32.51;98762.69;5088516;28;20032;-23
2021/08/06 00:19:30;;;;;;;14.13;5.15;;;;;;;29.09;32.54;98741.25;5088897;28;20032;-23
2021/08/06 00:21:56;;;;;;;13.55;5.35;;;;;;;29.07;32.60;98735.34;5088606;28;20414;-23
2021/08/06 00:24:21;;;;;;;15.35;5.20;;;;;;;28.85;32.55;98748.00;5088314;28;20028;-23
2021/08/06 00:26:47;;;;;;;17.10;6.22;;;;;;;28.96;32.27;98746.19;5088161;28;20059;-23
2021/08/06 00:29:12;;;;;;;13.93;5.90;;;;;;;28.89;32.31;98742.56;5088905;28;20118;-23
2021/08/06 00:31:38;;;;;;;13.90;5.20;;;;;;;28.80;31.76;98735.44;5088248;28;20600;-24
2021/08/06 00:34:04;;;;;;;12.60;5.10;;;;;;;28.72;31.81;98730.22;5088151;28;20035;-23
2021/08/06 00:36:29;;;;;;;11.20;5.25;;;;;;;28.72;32.01;98739.25;5088167;28;20046;-23
2021/08/06 00:38:55;;;;;;;32.33;7.13;;;;;;;29.07;31.81;98738.09;5088198;28;20038;-23
2021/08/06 00:41:20;;;;;;;14.98;5.57;;;;;;;28.98;31.75;98729.38;5088233;28;20032;-23
2021/08/06 00:43:46;;;;;;;15.90;6.05;;;;;;;29.37;31.64;98748.25;5088214;28;20070;-24
2021/08/06 00:46:13;;;;;;;16.02;5.28;;;;;;;29.51;30.86;98753.88;5087967;28;20039;-24
2021/08/06 00:48:39;;;;;;;;;;;;;;;29.91;30.42;98749.50;5088514;28;20487;-23
2021/08/06 00:51:04;;;;;;;15.07;5.63;;;;;;;30.12;30.28;98739.84;5069947;28;19958;-23
2021/08/06 00:53:30;;;;;;;12.98;5.07;;;;;;;29.77;30.48;98730.16;5070180;28;20467;-23
2021/08/06 00:55:55;;;;;;;13.77;5.40;;;;;;;29.27;31.65;98729.69;5088457;28;20081;-23
2021/08/06 00:58:20;;;;;;;17.10;5.82;;;;;;;29.00;31.55;98724.28;5087380;28;20063;-24
2021/08/06 01:00:48;;;;;;;26.63;5.85;;;;;;;29.05;31.88;98729.44;5087955;28;20031;-23
2021/08/06 01:03:22;;;;;;;14.27;5.68;;;;;;;29.35;31.52;98742.34;5088028;28;20036;-23
2021/08/06 01:05:55;;;;;;;10.90;5.00;;;;;;;29.61;30.89;98750.44;5087739;28;20044;-23
2021/08/06 01:08:23;;;;;;;17.13;5.63;;;;;;;29.94;30.61;98759.75;5053175;28;20036;-23
2021/08/06 01:10:58;;;;;;;23.98;5.53;;;;;;;29.88;31.24;98741.25;5070031;28;20077;-23
2021/08/06 01:13:43;;;;;;;26.85;6.78;;;;;;;29.90;31.29;98761.69;5070328;28;20032;-23
2021/08/06 01:16:09;;;;;;;16.60;5.57;;;;;;;29.82;30.61;98760.06;5071379;28;20070;-24
2021/08/06 01:18:35;;;;;;;14.87;5.73;;;;;;;29.49;31.75;98747.19;5070161;28;20028;-23
2021/08/06 01:21:09;;;;;;;14.52;5.63;;;;;;;29.20;31.60;98744.94;5070172;28;20047;-24
2021/08/06 01:23:38;;;;;;;12.48;5.25;;;;;;;28.84;32.44;98739.00;5053772;28;20028;-23
2021/08/06 01:26:25;;;;;;;16.52;5.60;;;;;;;28.49;33.28;98730.31;5069600;28;20028;-23
2021/08/06 01:28:50;;;;;;;13.32;5.20;;;;;;;28.37;33.78;98756.00;5087237;28;20495;-23
2021/08/06 01:31:25;;;;;;;12.80;5.40;;;;;;;28.57;33.90;98748.47;5087848;28;20062;-23
2021/08/06 01:33:51;;;;;;;12.18;5.38;;;;;;;28.15;34.25;98741.19;5087864;28;20051;-24
2021/08/06 01:36:16;;;;;;;18.40;5.72;;;;;;;28.05;35.20;98748.06;5087442;28;20066;-23
2021/08/06 01:38:42;;;;;;;12.13;5.47;;;;;;;27.78;34.82;98717.09;5087877;28;20376;-24
2021/08/06 01:41:35;;;;;;;16.40;5.85;;;;;;;27.90;34.97;98741.59;5073341;28;20028;-23
2021/08/06 01:44:11;;;;;;;14.88;5.35;;;;;;;27.80;34.84;98753.13;5091657;28;20560;-23
2021/08/06 01:46:44;;;;;;;15.15;5.43;;;;;;;27.89;34.71;98748.25;5073330;28;20119;-23
2021/08/06 01:49:25;;;;;;;14.30;5.55;;;;;;;28.20;33.97;98743.63;5073496;28;20027;-23
2021/08/06 01:51:58;;;;;;;10.68;5.35;;;;;;;28.58;33.39;98744.56;5091465;28;20042;-23
2021/08/06 01:54:23;;;;;;;15.57;6.10;;;;;;;28.89;33.11;98739.84;5074371;28;20031;-23
2021/08/06 01:56:49;;;;;;;10.25;5.20;;;;;;;28.78;32.84;98748.72;5053007;28;20052;-23
2021/08/06 01:59:15;;;;;;;15.90;5.43;;;;;;;28.76;32.92;98753.00;5069663;28;20036;-23
2021/08/06 02:01:40;;;;;;;13.45;5.75;;;;;;;28.94;33.90;98753.25;5069899;28;20052;-24
2021/08/06 02:04:06;;;;;;;16.15;5.60;;;;;;;29.03;32.75;98742.75;5052776;28;20625;-23
2021/08/06 02:06:31;;;;;;;14.07;6.63;;;;;;;29.12;32.25;98757.00;5053359;28;20032;-24
2021/08/06 02:08:57;;;;;;;14.38;5.75;;;;;;;28.76;32.90;98745.56;5053316;28;20036;-24
2021/08/06 02:11:22;;;;;;;14.80;5.75;;;;;;;28.60;33.64;98742.22;5053009;28;20036;-23
2021/08/06 02:13:51;;;;;;;14.15;6.32;;;;;;;28.32;34.00;98740.66;5069465;28;20028;-24
2021/08/06 02:16:17;;;;;;;15.90;5.95;;;;;;;28.54;33.24;98739.00;5070697;28;20115;-24
2021/08/06 02:18:49;;;;;;;16.35;5.55;;;;;;;28.92;32.99;98750.84;5052779;28;20412;-24
2021/08/06 02:21:16;;;;;;;16.92;6.55;;;;;;;28.19;35.48;98733.81;5069669;28;20048;-23
2021/08/06 02:23:44;;;;;;;15.07;5.57;;;;;;;27.75;35.99;98706.91;5070651;28;20029;-24
2021/08/06 02:26:11;;;;;;;15.15;6.25;;;;;;;28.08;34.73;98738.34;5069078;28;20034;-23
2021/08/06 02:28:37;;;;;;;20.70;6.63;;;;;;;27.59;35.54;98742.63;5069426;28;20081;-23
2021/08/06 02:31:02;;;;;;;14.93;5.93;;;;;;;27.91;35.53;98745.94;5052625;28;20032;-24
2021/08/06 02:33:28;;;;;;;16.55;7.18;;;;;;;27.98;34.83;98743.28;5069540;28;20033;-24
2021/08/06 02:35:53;;;;;;;14.48;6.38;;;;;;;28.36;34.73;98754.41;5052641;28;20696;-24
2021/08/06 02:38:23;;;;;;;14.88;5.45;;;;;;;28.31;33.99;98725.34;5070049;28;20020;-23
2021/08/06 02:40:49;;;;;;;17.88;6.03;;;;;;;28.00;34.85;98740.97;5070660;28;20087;-24
2021/08/06 02:43:15;;;;;;;17.92;6.18;;;;;;;27.81;35.90;98727.34;5070403;28;20029;-23
2021/08/06 02:45:40;;;;;;;14.25;6.35;;;;;;;28.37;34.72;98756.78;5070109;28;20037;-23
2021/08/06 02:48:06;;;;;;;18.08;6.72;;;;;;;28.41;35.06;98763.09;5069969;28;20020;-23
2021/08/06 02:50:31;;;;;;;16.80;5.68;;;;;;;28.43;34.59;98755.31;5069935;28;20033;-23
2021/08/06 02:52:57;;;;;;;17.58;6.40;;;;;;;28.27;35.61;98767.59;5070164;28;20086;-24
2021/08/06 02:55:22;;;;;;;14.32;6.20;;;;;;;28.43;34.31;98771.75;5070098;28;20043;-23
2021/08/06 02:57:48;;;;;;;14.52;5.70;;;;;;;28.31;35.18;98763.75;5083851;28;20530;-23
2021/08/06 03:00:14;;;;;;;18.85;6.47;;;;;;;28.53;34.90;98775.06;5090249;28;20557;-23
2021/08/06 03:02:39;;;;;;;23.08;6.45;;;;;;;27.97;36.49;98766.38;5090064;28;20043;-23
2021/08/06 03:05:05;;;;;;;13.25;5.68;;;;;;;27.57;36.97;98775.06;5090055;28;20028;-23
2021/08/06 03:07:31;;;;;;;16.88;5.97;;;;;;;27.60;36.93;98779.78;5090377;28;20036;-24
2021/08/06 03:09:56;;;;;;;15.45;6.13;;;;;;;27.44;37.24;98775.22;5089998;28;20395;-24
2021/08/06 03:12:22;;;;;;;15.05;5.95;;;;;;;27.13;37.56;98773.41;5089720;28;20028;-23
2021/08/06 03:14:47;;;;;;;16.55;6.10;;;;;;;26.96;38.23;98768.41;5089762;28;20043;-24
2021/08/06 03:17:13;;;;;;;19.15;6.70;;;;;;;27.52;36.81;98765.19;5090138;28;20104;-23
2021/08/06 03:19:38;;;;;;;30.10;15.38;;;;;;;27.95;36.42;98760.47;5089934;28;20035;-24
2021/08/06 03:22:04;;;;;;;33.67;15.85;;;;;;;27.95;36.59;98771.44;5089437;28;20035;-24
2021/08/06 03:24:29;;;;;;;24.33;14.07;;;;;;;28.02;36.72;98763.31;5089553;28;20548;-24
2021/08/06 03:26:55;;;;;;;28.65;13.55;;;;;;;27.65;38.22;98757.59;5089622;28;20034;-24
2021/08/06 03:29:20;;;;;;;22.50;9.20;;;;;;;27.52;37.26;98769.88;5089633;28;20024;-23
2021/08/06 03:31:46;;;;;;;30.27;9.77;;;;;;;27.62;36.77;98780.22;5088474;28;20036;-23
2021/08/06 03:34:11;;;;;;;17.95;7.32;;;;;;;27.19;37.74;98777.44;5089050;28;20085;-23
2021/08/06 03:36:37;;;;;;;19.33;6.82;;;;;;;26.68;38.77;98779.53;5089422;28;20028;-23
2021/08/06 03:39:03;;;;;;;15.05;6.72;;;;;;;26.77;38.81;98780.91;5089374;28;20399;-24
2021/08/06 03:41:29;;;;;;;16.90;7.38;;;;;;;26.72;39.50;98783.94;5089523;28;20113;-24
2021/08/06 03:43:54;;;;;;;16.52;6.70;;;;;;;26.88;38.92;98794.03;5089422;28;20032;-23
2021/08/06 03:46:19;;;;;;;19.15;6.50;;;;;;;26.97;38.70;98778.19;5089013;28;20487;-23
2021/08/06 03:48:45;;;;;;;13.20;6.20;;;;;;;26.61;39.85;98772.75;5089426;28;20073;-24
2021/08/06 03:51:10;;;;;;;19.27;7.40;;;;;;;26.73;40.46;98791.00;5089650;28;20035;-25
2021/08/06 03:53:36;;;;;;;23.50;6.63;;;;;;;26.83;39.66;98795.91;5089243;28;20933;-24
2021/08/06 03:56:01;;;;;;;16.60;6.72;;;;;;;26.77;40.47;98775.44;5088928;28;20043;-24
2021/08/06 03:58:27;;;;;;;13.40;6.22;;;;;;;26.61;40.65;98782.91;5088735;28;20044;-23
2021/08/06 04:00:52;;;;;;;15.38;6.70;;;;;;;26.78;40.09;98774.28;5088873;28;20027;-23
2021/08/06 04:03:18;;;;;;;19.30;7.88;;;;;;;26.67;41.83;98778.75;5088751;28;20044;-23
2021/08/06 04:05:43;;;;;;;18.60;7.13;;;;;;;26.50;40.86;98769.00;5088929;28;20411;-24
2021/08/06 04:08:09;;;;;;;18.35;6.97;;;;;;;26.79;40.13;98781.34;5088710;28;20023;-24
2021/08/06 04:10:35;;;;;;;15.13;7.00;;;;;;;27.09;39.39;98764.34;5088832;28;20036;-23
2021/08/06 04:13:00;;;;;;;52.28;10.07;;;;;;;27.39;38.76;98780.19;5088891;28;20028;-24
2021/08/06 04:15:26;;;;;;;13.90;7.47;;;;;;;27.86;37.95;98781.81;5088730;28;20024;-23
2021/08/06 04:17:51;;;;;;;46.60;32.38;;;;;;;27.74;38.51;98795.69;5088699;28;20410;-24
2021/08/06 04:20:17;;;;;;;30.80;19.52;;;;;;;28.04;38.11;98799.34;5088546;28;20032;-23
2021/08/06 04:22:42;;;;;;;21.23;9.90;;;;;;;28.12;37.43;98796.75;5088594;28;20036;-23
2021/08/06 04:25:09;;;;;;;26.92;11.23;;;;;;;27.77;37.54;98784.81;5088805;28;20093;-24
2021/08/06 04:27:34;;;;;;;20.55;10.27;;;;;;;27.99;37.91;98785.97;5088772;28;20024;-23
2021/08/06 04:30:00;;;;;;;24.20;10.30;;;;;;;27.91;38.06;98781.53;5088691;28;20093;-24
2021/08/06 04:32:25;;;;;;;17.83;8.77;;;;;;;27.60;38.72;98758.69;5088430;28;20180;-23
2021/08/06 04:34:50;;;;;;;24.08;12.75;;;;;;;27.15;40.77;98760.16;5088627;28;20457;-24
2021/08/06 04:37:16;;;;;;;29.92;16.60;;;;;;;26.94;41.38;98781.66;5088200;28;20035;-24
2021/08/06 04:39:41;;;;;;;25.10;13.00;;;;;;;26.73;41.96;98788.25;5088487;28;20058;-24
2021/08/06 04:42:07;;;;;;;20.60;9.55;;;;;;;26.73;43.26;98788.25;5088030;28;20411;-23
2021/08/06 04:44:36;;;;;;;23.65;9.80;;;;;;;26.68;43.87;98783.06;5088268;28;20073;-23
2021/08/06 04:47:05;;;;;;;18.25;9.90;;;;;;;26.73;42.79;98771.06;5088335;28;20032;-23
2021/08/06 04:49:30;;;;;;;27.23;9.15;;;;;;;26.91;41.48;98753.06;5088202;28;20032;-23
2021/08/06 04:51:56;;;;;;;26.55;10.68;;;;;;;27.09;41.23;98772.56;5088129;28;20047;-24
2021/08/06 04:54:21;;;;;;;26.10;12.07;;;;;;;27.09;41.57;98771.78;5088121;28;20051;-24
2021/08/06 04:56:47;;;;;;;25.73;11.95;;;;;;;27.69;39.92;98796.78;5087721;28;20052;-23
2021/08/06 04:59:12;;;;;;;25.92;11.02;;;;;;;28.08;39.19;98802.16;5088142;28;20413;-23
2021/08/06 05:01:38;;;;;;;26.73;10.80;;;;;;;28.37;38.68;98800.66;5088423;28;20024;-23
2021/08/06 05:04:04;;;;;;;26.33;12.80;;;;;;;28.59;38.44;98806.47;5088101;28;20028;-23
2021/08/06 05:06:29;;;;;;;29.95;13.15;;;;;;;28.57;39.56;98792.34;5087624;28;20051;-23
2021/08/06 05:08:55;;;;;;;21.17;10.63;;;;;;;28.04;39.90;98799.34;5088181;28;20023;-23
2021/08/06 05:11:21;;;;;;;23.10;9.43;;;;;;;27.70;40.08;98808.53;5088074;28;20036;-23
2021/08/06 05:13:46;;;;;;;27.52;9.90;;;;;;;27.73;40.90;98802.34;5090268;28;20032;-23
2021/08/06 05:16:12;;;;;;;23.33;8.98;;;;;;;27.69;39.78;98802.28;5092310;28;20036;-23
2021/08/06 05:18:38;;;;;;;17.45;8.65;;;;;;;27.65;40.83;98802.19;5092048;28;20031;-23
2021/08/06 05:21:03;;;;;;;21.52;9.05;;;;;;;27.53;41.96;98802.38;5092049;28;20423;-24
2021/08/06 05:23:29;;;;;;;18.65;8.80;;;;;;;27.43;40.42;98820.19;5092069;28;20089;-24
2021/08/06 05:25:55;;;;;;;16.55;8.35;;;;;;;27.89;39.27;98835.09;5092057;28;20039;-23
2021/08/06 05:28:20;;;;;;;16.92;7.55;;;;;;;28.39;38.54;98831.22;5091850;28;20428;-23
2021/08/06 05:30:45;;;;;;;21.35;7.40;;;;;;;28.54;38.78;98831.47;5092089;28;20047;-24
2021/08/06 05:33:11;;;;;;;14.63;6.72;;;;;;;28.65;38.74;98832.44;5091960;28;20036;-23
2021/08/06 05:35:38;;;;;;;23.65;7.97;;;;;;;29.10;37.77;98832.63;5091933;28;20028;-23
2021/08/06 05:38:03;;;;;;;16.23;7.70;;;;;;;29.28;36.51;98841.91;5091516;28;20105;-23
2021/08/06 05:40:29;;;;;;;16.23;7.32;;;;;;;29.51;35.47;98839.00;5091821;28;20376;-23
2021/08/06 05:42:56;;;;;;;17.80;7.80;;;;;;;29.45;36.87;98835.03;5091675;28;20032;-23
2021/08/06 05:45:21;;;;;;;15.95;7.57;;;;;;;29.50;36.58;98840.16;5091659;28;20081;-24
2021/08/06 05:47:51;;;;;;;23.83;7.45;;;;;;;29.52;36.03;98840.56;5091624;28;20028;-24
2021/08/06 05:50:17;;;;;;;17.65;7.57;;;;;;;29.66;37.64;98834.44;5091278;28;20111;-23
2021/08/06 05:52:43;;;;;;;20.65;7.30;;;;;;;30.08;35.34;98832.50;5091565;28;20057;-24
2021/08/06 05:55:09;;;;;;;15.77;7.35;;;;;;;30.39;34.25;98848.50;5091321;28;20046;-24
2021/08/06 05:57:35;;;;;;;18.08;7.85;;;;;;;30.37;36.23;98852.81;5090819;28;20487;-24
2021/08/06 06:00:00;;;;;;;17.13;7.35;;;;;;;30.12;34.28;98855.31;5091558;28;20035;-24
2021/08/06 06:02:26;;;;;;;20.15;7.85;;;;;;;30.12;35.02;98852.56;5091187;28;20430;-23
2021/08/06 06:04:51;;;;;;;15.88;7.78;;;;;;;30.23;34.10;98851.47;5091441;28;20823;-23
2021/08/06 06:07:17;;;;;;;14.63;7.88;;;;;;;30.52;36.02;98845.44;5091410;28;20036;-23
2021/08/06 06:09:42;;;;;;;19.52;7.60;;;;;;;30.59;35.03;98835.28;5091143;28;20024;-23
2021/08/06 06:12:08;;;;;;;15.13;7.60;;;;;;;30.94;33.82;98844.16;5090822;28;20101;-24
2021/08/06 06:14:33;;;;;;;14.98;7.07;;;;;;;30.96;34.83;98850.06;5091285;28;20063;-24
2021/08/06 06:16:59;;;;;;;13.95;6.55;;;;;;;30.74;36.52;98849.91;5091012;28;20067;-24
2021/08/06 06:19:24;;;;;;;19.17;7.32;;;;;;;30.90;33.31;98829.59;5090923;28;20032;-24
2021/08/06 06:21:50;;;;;;;15.85;6.47;;;;;;;30.94;33.63;98846.91;5091054;28;20039;-24
2021/08/06 06:24:15;;;;;;;31.23;7.40;;;;;;;30.70;33.35;98851.84;5090179;28;20089;-23
2021/08/06 06:26:41;;;;;;;16.33;7.88;;;;;;;30.60;33.63;98839.59;5090144;28;20024;-23
2021/08/06 06:29:06;;;;;;;18.48;7.20;;;;;;;30.72;33.66;98837.72;5090806;28;20503;-23
2021/08/06 06:31:32;;;;;;;20.30;7.57;;;;;;;30.57;34.91;98823.88;5090730;28;20092;-23
2021/08/06 06:33:58;;;;;;;15.77;7.15;;;;;;;30.43;34.43;98832.81;5090466;28;20088;-24
2021/08/06 06:36:23;;;;;;;22.02;7.53;;;;;;;30.71;34.55;98836.91;5089382;28;20032;-24
2021/08/06 06:38:49;;;;;;;16.38;6.97;;;;;;;30.86;34.12;98837.78;5089811;28;20462;-23
2021/08/06 06:41:14;;;;;;;16.38;7.15;;;;;;;30.57;34.76;98847.84;5090796;28;20036;-24
2021/08/06 06:43:40;;;;;;;17.27;7.07;;;;;;;30.42;34.72;98842.25;5090459;28;20043;-24
2021/08/06 06:46:05;;;;;;;17.90;7.28;;;;;;;30.54;33.88;98849.38;5090350;28;20032;-24
2021/08/06 06:48:31;;;;;;;13.35;6.45;;;;;;;30.48;32.87;98850.13;5089877;28;20028;-24
2021/08/06 06:50:56;;;;;;;14.13;6.93;;;;;;;30.27;33.36;98843.28;5090341;28;20028;-23
2021/08/06 06:53:22;;;;;;;12.63;6.50;;;;;;;30.62;32.89;98848.25;5090370;28;20031;-23
2021/08/06 06:55:47;;;;;;;15.07;6.45;;;;;;;31.12;32.61;98844.22;5090054;28;20028;-24
2021/08/06 06:58:13;;;;;;;14.27;6.03;;;;;;;31.00;31.33;98850.88;5089676;28;20515;-23
2021/08/06 07:00:38;;;;;;;12.82;6.15;;;;;;;31.33;30.50;98843.53;5088264;28;20028;-24
2021/08/06 07:03:04;;;;;;;16.25;6.32;;;;;;;31.59;30.79;98854.25;5088031;28;20048;-23
2021/08/06 07:05:29;;;;;;;30.48;6.57;;;;;;;31.95;30.62;98851.53;5088285;28;20032;-23
2021/08/06 07:07:55;;;;;;;19.55;6.57;;;;;;;31.88;30.25;98848.78;5087942;28;20031;-23
2021/08/06 07:10:20;;;;;;;13.38;6.05;;;;;;;31.98;30.63;98845.25;5089205;28;20525;-24
2021/08/06 07:12:46;;;;;;;16.00;6.85;;;;;;;32.18;29.41;98837.41;5089030;28;20028;-23
2021/08/06 07:15:13;;;;;;;15.18;6.03;;;;;;;32.13;29.37;98850.81;5089164;28;20459;-23
2021/08/06 07:17:39;;;;;;;18.02;9.52;;;;;;;32.30;28.78;98846.44;5088927;28;20020;-24
2021/08/06 07:20:05;;;;;;;16.33;6.63;;;;;;;32.19;29.21;98843.69;5089137;28;20047;-24
2021/08/06 07:22:31;;;;;;;17.98;6.60;;;;;;;32.21;28.91;98833.06;5089175;28;20035;-24
2021/08/06 07:24:56;;;;;;;12.88;6.60;;;;;;;32.51;28.67;98856.66;5089617;28;20036;-23
2021/08/06 07:27:22;;;;;;;18.98;9.05;;;;;;;32.51;28.87;98842.88;5089110;28;20085;-23
2021/08/06 07:29:47;;;;;;;14.95;6.38;;;;;;;32.68;29.37;98842.09;5087897;28;20023;-23
2021/08/06 07:32:13;;;;;;;15.90;6.60;;;;;;;32.55;28.99;98841.72;5087604;28;20721;-23
2021/08/06 07:34:38;;;;;;;14.27;5.82;;;;;;;32.29;28.35;98842.13;5071126;28;20097;-23
2021/08/06 07:37:04;;;;;;;14.25;6.30;;;;;;;32.46;29.29;98829.50;5088554;28;20028;-23
2021/08/06 07:39:29;;;;;;;14.13;6.78;;;;;;;32.86;28.75;98839.28;5089074;28;20032;-24
2021/08/06 07:41:55;;;;;;;14.48;6.57;;;;;;;32.88;27.98;98825.09;5089445;28;20039;-23
2021/08/06 07:44:20;;;;;;;15.95;6.85;;;;;;;33.02;27.96;98834.09;5089273;28;20133;-23
2021/08/06 07:46:46;;;;;;;21.45;7.30;;;;;;;32.96;27.97;98821.13;5089231;28;20081;-23
2021/08/06 07:49:11;;;;;;;15.35;6.38;;;;;;;33.14;28.63;98826.56;5089291;28;20406;-23
2021/08/06 07:51:37;;;;;;;17.17;7.70;;;;;;;32.29;30.55;98826.34;5089765;28;20514;-23
2021/08/06 07:54:03;;;;;;;18.83;7.40;;;;;;;31.97;31.91;98832.63;5089021;28;20868;-23
2021/08/06 07:56:29;;;;;;;15.40;7.18;;;;;;;31.82;31.79;98836.56;5088835;28;20058;-23
2021/08/06 07:58:54;;;;;;;18.90;7.75;;;;;;;32.16;31.93;98838.97;5089037;28;20027;-24
2021/08/06 08:01:20;;;;;;;17.10;7.45;;;;;;;31.88;32.11;98829.50;5088955;28;20480;-23
2021/08/06 08:03:45;;;;;;;19.27;7.38;;;;;;;32.08;32.13;98827.16;5088736;28;20097;-23
2021/08/06 08:06:12;;;;;;;21.35;7.95;;;;;;;32.29;31.75;98829.13;5088679;28;20039;-23
2021/08/06 08:08:37;;;;;;;20.37;7.90;;;;;;;32.37;31.69;98827.94;5088709;28;20107;-23
2021/08/06 08:11:03;;;;;;;22.10;9.07;;;;;;;32.36;31.64;98836.59;5088930;28;20028;-23
2021/08/06 08:13:28;;;;;;;24.27;9.98;;;;;;;32.23;31.65;98822.44;5089109;28;20058;-23
2021/08/06 08:15:54;;;;;;;20.92;7.80;;;;;;;32.50;31.61;98813.72;5088773;28;20039;-23
2021/08/06 08:18:19;;;;;;;17.13;6.57;;;;;;;32.12;31.73;98816.13;5088453;28;20050;-23
2021/08/06 08:20:47;;;;;;;20.50;6.38;;;;;;;32.11;31.81;98836.63;5088689;28;20065;-23
2021/08/06 08:23:13;;;;;;;22.77;7.50;;;;;;;31.89;32.44;98833.81;5088523;28;20032;-23
2021/08/06 08:25:38;;;;;;;17.85;8.13;;;;;;;31.85;32.83;98824.75;5088600;28;20039;-23
2021/08/06 08:28:05;;;;;;;18.92;8.25;;;;;;;31.70;32.91;98823.16;5088484;28;20024;-23
2021/08/06 08:30:30;;;;;;;18.73;8.93;;;;;;;32.14;33.18;98833.06;5088264;28;20032;-24
2021/08/06 08:32:56;;;;;;;24.73;10.00;;;;;;;32.10;32.85;98840.53;5088633;28;20085;-23
2021/08/06 08:35:21;;;;;;;23.95;10.60;;;;;;;32.15;33.35;98821.63;5088866;28;20028;-23
2021/08/06 08:37:46;;;;;;;21.65;8.48;;;;;;;32.06;32.74;98839.75;5088203;28;20028;-23
2021/08/06 08:40:12;;;;;;;25.02;10.40;;;;;;;32.06;33.06;98825.97;5088297;28;20039;-23
2021/08/06 08:42:38;;;;;;;20.23;9.52;;;;;;;32.36;32.82;98823.56;5088275;28;20101;-23
2021/08/06 08:45:05;;;;;;;18.58;10.90;;;;;;;32.67;33.02;98831.44;5088160;28;20107;-23
2021/08/06 08:47:33;;;;;;;20.40;9.43;;;;;;;32.70;31.91;98827.91;5088070;28;20063;-23
2021/08/06 08:49:59;;;;;;;23.10;9.88;;;;;;;32.97;31.27;98820.69;5088171;28;20398;-23
2021/08/06 08:52:24;;;;;;;19.55;9.98;;;;;;;32.89;31.39;98802.59;5053013;28;20024;-23
2021/08/06 08:54:50;;;;;;;22.63;10.07;;;;;;;32.85;31.66;98823.91;5088015;28;20036;-23
2021/08/06 08:57:22;;;;;;;24.10;9.90;;;;;;;32.87;32.16;98804.97;5087721;28;20059;-23
2021/08/06 08:59:50;;;;;;;19.55;9.30;;;;;;;33.04;31.06;98803.34;5087909;28;20040;-23
2021/08/06 09:02:15;;;;;;;20.40;9.40;;;;;;;33.20;30.24;98800.09;5069760;28;20419;-23
2021/08/06 09:04:43;;;;;;;19.80;9.02;;;;;;;33.46;29.49;98812.59;5088148;28;20476;-23
2021/08/06 09:07:09;;;;;;;18.63;8.52;;;;;;;33.29;29.34;98807.97;5088033;28;20801;-23
2021/08/06 09:09:35;;;;;;;21.05;9.05;;;;;;;33.31;29.18;98809.13;5088056;28;20115;-23
2021/08/06 09:12:08;;;;;;;17.08;7.40;;;;;;;33.49;28.23;98800.75;5088232;28;20042;-23
2021/08/06 09:14:35;;;;;;;17.13;8.15;;;;;;;33.39;28.79;98801.59;5088209;28;20035;-23
2021/08/06 09:17:02;;;;;;;17.35;7.25;;;;;;;33.81;28.47;98800.53;5088217;28;20139;-24
2021/08/06 09:19:32;;;;;;;;;;;;;;;33.99;28.55;98805.91;5088723;28;20852;-23
2021/08/06 09:22:11;;;;;;;14.93;7.10;;;;;;;34.19;26.69;98799.88;5088154;28;19908;-23
2021/08/06 09:24:59;;;;;;;17.48;7.68;;;;;;;34.18;27.05;98803.81;5087898;28;20032;-23
2021/08/06 09:27:25;;;;;;;18.02;7.35;;;;;;;34.14;26.68;98789.22;5087952;28;20024;-23
2021/08/06 09:29:51;;;;;;;19.08;7.20;;;;;;;34.02;27.90;98798.78;5087714;28;20035;-23
2021/08/06 09:32:16;;;;;;;11.75;5.80;;;;;;;33.99;27.66;98778.25;5087551;28;20075;-23
2021/08/06 09:34:42;;;;;;;12.65;6.55;;;;;;;34.11;27.46;98784.50;5087932;28;20043;-23
2021/08/06 09:37:11;;;;;;;13.13;5.60;;;;;;;34.24;27.19;98791.09;5088031;28;20031;-23
2021/08/06 09:39:43;;;;;;;10.75;5.13;;;;;;;33.87;27.08;98791.81;5087888;28;20032;-23
2021/08/06 09:42:25;;;;;;;11.63;5.20;;;;;;;33.43;28.30;98780.25;5087261;28;20028;-23
2021/08/06 09:45:14;;;;;;;11.95;4.95;;;;;;;33.64;27.50;98789.63;5087683;28;20535;-23
2021/08/06 09:47:40;;;;;;;12.40;5.40;;;;;;;34.05;27.50;98783.38;5087519;28;20035;-23
2021/08/06 09:50:07;;;;;;;12.32;5.32;;;;;;;33.79;26.96;98796.59;5087505;28;20063;-23
2021/08/06 09:52:34;;;;;;;11.85;5.38;;;;;;;33.61;27.60;98778.19;5087729;28;20024;-23
2021/08/06 09:55:02;;;;;;;12.38;5.78;;;;;;;34.37;26.67;98775.56;5087364;28;20051;-23
2021/08/06 09:57:28;;;;;;;15.73;8.27;;;;;;;34.03;26.71;98772.72;5087161;28;20043;-23
2021/08/06 09:59:57;;;;;;;14.18;6.72;;;;;;;34.15;26.92;98757.63;5087805;28;20411;-23
2021/08/06 10:02:27;;;;;;;15.68;7.70;;;;;;;34.37;26.48;98775.56;5090807;28;20028;-23
2021/08/06 10:05:01;;;;;;;16.33;5.30;;;;;;;34.31;27.20;98752.31;5091200;28;20020;-23
2021/08/06 10:07:28;;;;;;;11.20;5.05;;;;;;;33.95;28.04;98782.25;5091061;28;20035;-23
2021/08/06 10:09:53;;;;;;;12.35;4.47;;;;;;;33.09;29.08;98780.84;5091083;28;20031;-23
2021/08/06 10:12:19;;;;;;;12.43;4.75;;;;;;;32.41;30.21;98775.50;5091329;28;20020;-23
2021/08/06 10:14:44;;;;;;;14.85;5.18;;;;;;;32.59;30.65;98803.06;5091203;28;20070;-23
2021/08/06 10:17:10;;;;;;;11.68;4.43;;;;;;;31.93;31.08;98776.69;5090868;28;20445;-23
2021/08/06 10:19:36;;;;;;;10.95;4.70;;;;;;;31.84;31.76;98762.53;5091018;28;20028;-23
2021/08/06 10:22:03;;;;;;;12.45;5.18;;;;;;;32.17;30.85;98790.91;5090633;28;20114;-23
2021/08/06 10:24:28;;;;;;;;;;;;;;;32.44;30.49;98794.78;5073574;28;20069;-23
2021/08/06 10:26:54;;;;;;;9.13;4.88;;;;;;;32.58;30.44;98787.72;5072704;28;19912;-23
2021/08/06 10:29:20;;;;;;;10.80;5.55;;;;;;;32.34;30.43;98781.81;5056037;28;20031;-23
2021/08/06 10:32:10;;;;;;;8.15;4.70;;;;;;;31.94;31.44;98783.03;5090736;28;20039;-23
2021/08/06 10:35:11;;;;;;;10.65;4.60;;;;;;;31.38;32.86;98780.56;5078565;28;20117;-23
2021/08/06 10:37:48;;;;;;;12.45;5.82;;;;;;;31.52;31.71;98766.06;5090504;28;20034;-23
2021/08/06 10:40:32;;;;;;;13.55;5.38;;;;;;;31.56;32.60;98769.59;5072206;28;20035;-23
2021/08/06 10:43:10;;;;;;;12.43;5.40;;;;;;;31.42;32.26;98780.56;5090385;28;20056;-23
2021/08/06 10:45:45;;;;;;;8.40;5.25;;;;;;;31.08;33.36;98775.38;5090449;28;20032;-24
2021/08/06 10:48:35;;;;;;;12.48;5.82;;;;;;;30.88;33.56;98774.13;5090112;28;20080;-24
2021/08/06 10:51:12;;;;;;;11.60;5.00;;;;;;;30.69;34.15;98780.69;5090325;28;20024;-23
2021/08/06 10:53:44;;;;;;;12.35;5.55;;;;;;;30.69;34.36;98773.22;5090505;28;20377;-24
2021/08/06 10:56:16;;;;;;;12.35;5.50;;;;;;;30.80;34.15;98776.03;5089836;28;20031;-23
2021/08/06 10:58:53;;;;;;;12.40;5.60;;;;;;;30.90;34.02;98766.28;5090176;28;20487;-23
2021/08/06 11:01:31;;;;;;;16.48;5.57;;;;;;;30.57;34.48;98768.06;5090501;28;20042;-23
2021/08/06 11:04:18;;;;;;;8.88;5.28;;;;;;;30.43;35.47;98777.78;5090222;28;20039;-23
2021/08/06 11:06:48;;;;;;;13.57;5.55;;;;;;;30.46;34.75;98767.97;5090131;28;20032;-23
2021/08/06 11:09:26;;;;;;;11.48;5.53;;;;;;;30.63;34.40;98786.56;5089842;28;20043;-23
2021/08/06 11:12:21;;;;;;;10.00;4.95;;;;;;;30.47;34.57;98755.03;5089522;28;20047;-23
2021/08/06 11:14:48;;;;;;;10.68;5.18;;;;;;;30.60;34.56;98750.78;5085761;28;20097;-23
2021/08/06 11:17:20;;;;;;;10.05;5.47;;;;;;;30.43;33.87;98750.28;5089792;28;20060;-23
2021/08/06 11:19:51;;;;;;;15.25;5.38;;;;;;;30.54;34.33;98772.34;5089700;28;20032;-23
2021/08/06 11:22:16;;;;;;;10.30;4.85;;;;;;;30.46;33.97;98780.94;5089484;28;20039;-23
2021/08/06 11:24:43;;;;;;;9.07;5.05;;;;;;;30.16;34.84;98785.44;5089738;28;20024;-23